Time;durP1;ratioP1;P1;durP2;ratioP2;P2;SDS_P1;SDS_P2;PMS_P1;PMS_P2;Temp;Humidity;BMP_temperature;BMP_pressure;BME280_temperature;BME280_humidity;BME280_pressure;Samples;Min_cycle;Max_cycle;Signal;HPM_P1;HPM_P2
2022/08/30 00:01:06;;;;;;;11.43;4.78;;;15.70;99.90;;;;;;4984595;28;20033;-85
2022/08/30 00:03:40;;;;;;;11.70;4.13;;;15.70;99.90;;;;;;4983998;28;20031;-85
2022/08/30 00:06:08;;;;;;;9.77;4.22;;;15.70;99.90;;;;;;5000627;28;20725;-85
2022/08/30 00:08:35;;;;;;;12.43;4.43;;;15.70;99.90;;;;;;4995672;28;20027;-86
2022/08/30 00:11:03;;;;;;;11.45;4.20;;;15.70;99.90;;;;;;4994245;28;20077;-85
2022/08/30 00:13:29;;;;;;;8.80;4.00;;;15.60;99.90;;;;;;4994693;28;20145;-86
2022/08/30 00:15:55;;;;;;;13.07;4.53;;;15.60;99.90;;;;;;4990780;28;20038;-85
2022/08/30 00:18:21;;;;;;;11.18;4.60;;;15.50;99.90;;;;;;4994313;28;20504;-85
2022/08/30 00:20:48;;;;;;;10.13;4.20;;;15.50;99.90;;;;;;4988230;28;20057;-85
2022/08/30 00:23:15;;;;;;;13.30;4.38;;;15.60;99.90;;;;;;4990228;28;20093;-85
2022/08/30 00:25:41;;;;;;;13.73;5.22;;;15.80;99.90;;;;;;4992564;28;20495;-86
2022/08/30 00:28:08;;;;;;;9.77;4.70;;;15.90;99.90;;;;;;4996204;28;20041;-85
2022/08/30 00:30:34;;;;;;;14.20;5.45;;;16.00;99.90;;;;;;4994541;28;20026;-86
2022/08/30 00:33:00;;;;;;;14.80;4.95;;;16.10;99.90;;;;;;4987352;28;20033;-85
2022/08/30 00:35:26;;;;;;;9.40;4.20;;;16.20;99.90;;;;;;4993622;28;20510;-85
2022/08/30 00:37:52;;;;;;;12.35;4.80;;;16.10;99.90;;;;;;4994138;28;20029;-85
2022/08/30 00:40:19;;;;;;;11.45;4.18;;;16.10;99.90;;;;;;4984228;28;20045;-85
2022/08/30 00:42:46;;;;;;;9.98;4.75;;;16.10;99.90;;;;;;4981708;28;20042;-85
2022/08/30 00:45:17;;;;;;;10.40;4.85;;;16.10;99.90;;;;;;4988675;28;20126;-85
2022/08/30 00:47:43;;;;;;;13.63;5.10;;;16.00;99.90;;;;;;4989533;28;20030;-85
2022/08/30 00:50:09;;;;;;;11.55;4.72;;;16.10;99.90;;;;;;4995439;28;20022;-85
2022/08/30 00:52:37;;;;;;;12.13;4.50;;;16.20;99.90;;;;;;4995778;28;20106;-85
2022/08/30 00:55:04;;;;;;;12.00;4.43;;;16.20;99.90;;;;;;4993636;28;20037;-85
2022/08/30 00:57:31;;;;;;;9.30;4.68;;;16.20;99.90;;;;;;4980584;28;20026;-85
2022/08/30 00:59:57;;;;;;;13.80;5.20;;;16.20;99.90;;;;;;4988242;28;20031;-85
2022/08/30 01:02:25;;;;;;;13.45;5.25;;;16.30;99.90;;;;;;5002883;28;20030;-85
2022/08/30 01:04:51;;;;;;;10.60;4.88;;;16.20;99.90;;;;;;4994730;28;20034;-85
2022/08/30 01:07:18;;;;;;;11.65;4.80;;;16.30;99.90;;;;;;4987051;28;20074;-85
2022/08/30 01:09:44;;;;;;;10.65;5.03;;;16.30;99.90;;;;;;4990654;28;20023;-86
2022/08/30 01:12:10;;;;;;;11.55;5.15;;;16.20;99.90;;;;;;4987243;28;20019;-85
2022/08/30 01:14:36;;;;;;;10.57;5.00;;;16.30;99.90;;;;;;4985547;28;20043;-85
2022/08/30 01:17:03;;;;;;;11.85;5.45;;;16.30;99.90;;;;;;4993857;28;20026;-85
2022/08/30 01:19:47;;;;;;;10.75;5.13;;;16.20;99.90;;;;;;4980849;28;20034;-85
2022/08/30 01:22:28;;;;;;;10.82;4.80;;;16.30;99.90;;;;;;5003843;28;20124;-85
2022/08/30 01:24:57;;;;;;;9.95;4.45;;;16.10;99.90;;;;;;5003278;28;20045;-85
2022/08/30 01:27:24;;;;;;;10.00;4.90;;;16.00;99.90;;;;;;4992404;28;20030;-85
2022/08/30 01:29:50;;;;;;;9.38;4.65;;;16.00;99.90;;;;;;4991272;28;20034;-85
2022/08/30 01:32:19;;;;;;;11.35;4.80;;;16.00;99.90;;;;;;4990004;28;20038;-86
2022/08/30 01:34:48;;;;;;;11.43;4.90;;;15.90;99.90;;;;;;4993669;28;20050;-85
2022/08/30 01:37:23;;;;;;;10.23;4.35;;;15.90;99.90;;;;;;4991228;28;20483;-85
2022/08/30 01:39:49;;;;;;;10.40;4.82;;;15.80;99.90;;;;;;5003231;28;20034;-85
2022/08/30 01:42:16;;;;;;;11.90;5.05;;;15.80;99.90;;;;;;5008738;28;20022;-85
2022/08/30 01:44:47;;;;;;;8.77;4.45;;;15.70;99.90;;;;;;4995825;28;20034;-86
2022/08/30 01:47:14;;;;;;;13.13;4.72;;;15.70;99.90;;;;;;4985654;28;20088;-85
2022/08/30 01:49:40;;;;;;;8.63;4.35;;;15.60;99.90;;;;;;5000527;28;20506;-85
2022/08/30 01:52:06;;;;;;;10.15;4.50;;;15.60;99.90;;;;;;4991314;28;20042;-85
2022/08/30 01:54:35;;;;;;;12.43;4.65;;;15.50;99.90;;;;;;4987457;28;20023;-86
2022/08/30 01:57:01;;;;;;;17.23;5.18;;;15.50;99.90;;;;;;4993704;28;20031;-85
2022/08/30 01:59:27;;;;;;;9.48;4.65;;;15.60;99.90;;;;;;4980036;28;20499;-85
2022/08/30 02:01:53;;;;;;;10.13;4.93;;;15.70;99.90;;;;;;4993025;28;20030;-85
2022/08/30 02:04:19;;;;;;;9.82;4.28;;;15.70;99.90;;;;;;4985665;28;20038;-85
2022/08/30 02:06:45;;;;;;;12.38;4.68;;;15.70;99.90;;;;;;4974494;28;20814;-85
2022/08/30 02:09:12;;;;;;;10.20;4.68;;;15.70;99.90;;;;;;4985712;28;20030;-85
2022/08/30 02:11:37;;;;;;;9.05;4.50;;;15.80;99.90;;;;;;4990820;28;20031;-85
2022/08/30 02:14:04;;;;;;;9.85;4.80;;;15.80;99.90;;;;;;4993848;28;20579;-85
2022/08/30 02:16:30;;;;;;;8.80;4.97;;;15.70;99.90;;;;;;5001374;28;20037;-85
2022/08/30 02:18:56;;;;;;;11.68;4.82;;;15.70;99.90;;;;;;4990137;28;20027;-85
2022/08/30 02:21:23;;;;;;;10.68;5.18;;;15.60;99.90;;;;;;4990156;28;20023;-85
2022/08/30 02:23:49;;;;;;;10.55;5.28;;;15.50;99.90;;;;;;4991837;28;20058;-85
2022/08/30 02:26:17;;;;;;;8.18;4.45;;;15.40;99.90;;;;;;4980387;28;20057;-85
2022/08/30 02:28:43;;;;;;;11.48;4.90;;;15.40;99.90;;;;;;4986049;28;20033;-85
2022/08/30 02:31:10;;;;;;;10.20;4.60;;;15.30;99.90;;;;;;4982676;28;20059;-85
2022/08/30 02:33:36;;;;;;;11.45;5.28;;;15.20;99.90;;;;;;4990805;28;20096;-85
2022/08/30 02:36:03;;;;;;;9.38;4.93;;;15.10;99.90;;;;;;4992280;28;20024;-85
2022/08/30 02:38:28;;;;;;;13.43;5.60;;;15.20;99.90;;;;;;4981364;28;20110;-85
2022/08/30 02:40:54;;;;;;;11.13;5.15;;;15.20;99.90;;;;;;4981008;28;20114;-85
2022/08/30 02:43:20;;;;;;;11.27;5.10;;;15.30;99.90;;;;;;4988101;28;20475;-85
2022/08/30 02:45:45;;;;;;;15.25;5.85;;;15.40;99.90;;;;;;4985075;28;20041;-85
2022/08/30 02:48:11;;;;;;;12.15;5.50;;;15.40;99.90;;;;;;4988700;28;20038;-85
2022/08/30 02:50:42;;;;;;;13.20;5.35;;;15.40;99.90;;;;;;4989740;28;20037;-85
2022/08/30 02:53:08;;;;;;;16.30;5.43;;;15.30;99.90;;;;;;4991617;28;20026;-85
2022/08/30 02:55:33;;;;;;;15.85;5.32;;;15.20;99.90;;;;;;4979569;28;20026;-85
2022/08/30 02:57:59;;;;;;;17.08;5.18;;;15.20;99.90;;;;;;4994091;28;20030;-85
2022/08/30 03:00:25;;;;;;;10.93;5.05;;;15.00;99.90;;;;;;4974750;28;20106;-85
2022/08/30 03:02:50;;;;;;;10.27;5.03;;;14.80;99.90;;;;;;4989728;28;20026;-85
2022/08/30 03:05:16;;;;;;;10.65;5.43;;;14.80;99.90;;;;;;4981120;28;20029;-85
2022/08/30 03:07:42;;;;;;;11.25;5.53;;;14.70;99.90;;;;;;4980283;28;20047;-85
2022/08/30 03:10:09;;;;;;;13.07;6.10;;;14.70;99.90;;;;;;4981479;28;20030;-85
2022/08/30 03:12:35;;;;;;;11.50;6.28;;;14.60;99.90;;;;;;4983598;28;20037;-85
2022/08/30 03:15:01;;;;;;;11.65;5.93;;;14.60;99.90;;;;;;4984671;28;20101;-85
2022/08/30 03:17:27;;;;;;;12.00;5.78;;;14.50;99.90;;;;;;5000235;28;20060;-85
2022/08/30 03:19:53;;;;;;;13.85;5.88;;;14.40;99.90;;;;;;4983167;28;20368;-85
2022/08/30 03:22:18;;;;;;;14.57;6.35;;;14.30;99.90;;;;;;4990079;28;20376;-85
2022/08/30 03:24:47;;;;;;;12.93;6.18;;;14.30;99.90;;;;;;4989888;28;20085;-85
2022/08/30 03:27:12;;;;;;;9.95;5.55;;;14.30;99.90;;;;;;4982743;28;20050;-85
2022/08/30 03:29:38;;;;;;;10.50;5.75;;;14.30;99.90;;;;;;4990405;28;20030;-85
2022/08/30 03:32:04;;;;;;;11.75;6.05;;;14.30;99.90;;;;;;4979381;28;20081;-85
2022/08/30 03:34:31;;;;;;;12.43;6.30;;;14.30;99.90;;;;;;4979281;28;20064;-85
2022/08/30 03:36:57;;;;;;;12.60;5.60;;;14.20;99.90;;;;;;4996290;28;20614;-85
2022/08/30 03:39:24;;;;;;;14.50;7.05;;;14.10;99.90;;;;;;4995853;28;20092;-86
2022/08/30 03:41:50;;;;;;;13.30;6.82;;;14.00;99.90;;;;;;4984777;28;20033;-85
2022/08/30 03:44:16;;;;;;;13.23;6.55;;;14.10;99.90;;;;;;4993046;28;20035;-85
2022/08/30 03:46:41;;;;;;;12.75;6.43;;;14.00;99.90;;;;;;4985758;28;20037;-85
2022/08/30 03:49:07;;;;;;;15.15;7.32;;;14.00;99.90;;;;;;4997792;28;20035;-85
2022/08/30 03:51:33;;;;;;;19.60;8.18;;;13.90;99.90;;;;;;4980080;28;20025;-85
2022/08/30 03:54:00;;;;;;;12.98;7.07;;;13.90;99.90;;;;;;4986687;28;20090;-85
2022/08/30 03:56:26;;;;;;;14.45;7.63;;;13.80;99.90;;;;;;4985141;28;20105;-85
2022/08/30 03:58:52;;;;;;;14.15;7.65;;;13.80;99.90;;;;;;4988696;28;20440;-85
2022/08/30 04:01:17;;;;;;;15.35;7.72;;;13.70;99.90;;;;;;4991360;28;20031;-85
2022/08/30 04:03:43;;;;;;;15.27;7.65;;;13.70;99.90;;;;;;4995044;28;20030;-85
2022/08/30 04:06:09;;;;;;;13.98;7.32;;;13.50;99.90;;;;;;4994635;28;20045;-86
2022/08/30 04:08:35;;;;;;;14.10;7.75;;;13.40;99.90;;;;;;4983271;28;20030;-85
2022/08/30 04:11:01;;;;;;;15.65;7.43;;;13.30;99.90;;;;;;4988911;28;20030;-86
2022/08/30 04:13:28;;;;;;;14.02;7.95;;;13.30;99.90;;;;;;4982935;28;20486;-85
2022/08/30 04:15:54;;;;;;;16.95;8.23;;;13.30;99.90;;;;;;4982601;28;20035;-85
2022/08/30 04:18:19;;;;;;;14.45;7.70;;;13.20;99.90;;;;;;4983600;28;20439;-85
2022/08/30 04:20:46;;;;;;;15.27;7.45;;;13.00;99.90;;;;;;5003712;28;20117;-85
2022/08/30 04:23:12;;;;;;;15.85;7.90;;;13.00;99.90;;;;;;4989618;28;20027;-85
2022/08/30 04:25:40;;;;;;;14.73;8.10;;;12.90;99.90;;;;;;4984618;28;20022;-85
2022/08/30 04:28:06;;;;;;;16.20;8.20;;;13.00;99.90;;;;;;4983592;28;20521;-85
2022/08/30 04:30:33;;;;;;;16.98;8.05;;;12.90;99.90;;;;;;4983120;28;20554;-86
2022/08/30 04:32:59;;;;;;;15.63;8.30;;;12.80;99.90;;;;;;4988275;28;20033;-86
2022/08/30 04:35:25;;;;;;;18.55;7.47;;;12.70;99.90;;;;;;4990954;28;20425;-85
2022/08/30 04:37:51;;;;;;;17.33;8.40;;;12.60;99.90;;;;;;4978746;28;20131;-85
2022/08/30 04:40:17;;;;;;;17.73;8.05;;;12.50;99.90;;;;;;4985887;28;20066;-85
2022/08/30 04:42:43;;;;;;;16.35;8.20;;;12.60;99.90;;;;;;4989767;28;20027;-85
2022/08/30 04:45:13;;;;;;;18.27;8.52;;;12.60;99.90;;;;;;4986373;28;20037;-86
2022/08/30 04:47:39;;;;;;;16.02;8.43;;;12.70;99.90;;;;;;4981910;28;20040;-85
2022/08/30 04:50:11;;;;;;;18.27;9.32;;;12.70;99.90;;;;;;4992927;28;20046;-85
2022/08/30 04:52:37;;;;;;;22.05;10.15;;;12.90;99.90;;;;;;4994142;28;20026;-85
2022/08/30 04:55:04;;;;;;;17.25;9.90;;;13.00;99.90;;;;;;4992009;28;20033;-85
2022/08/30 04:57:30;;;;;;;17.13;9.23;;;13.10;99.90;;;;;;4994428;28;20115;-86
2022/08/30 04:59:56;;;;;;;21.50;11.10;;;13.10;99.90;;;;;;4988956;28;20035;-86
2022/08/30 05:02:22;;;;;;;17.50;9.65;;;13.20;99.90;;;;;;4989649;28;20033;-85
2022/08/30 05:07:32;;;;;;;17.02;9.27;;;13.30;99.90;;;;;;4987729;28;20110;-85
2022/08/30 05:09:58;;;;;;;21.02;9.45;;;13.30;99.90;;;;;;4993628;28;20451;-85
2022/08/30 05:12:24;;;;;;;21.33;9.60;;;13.30;99.90;;;;;;4990130;28;20463;-86
2022/08/30 05:14:50;;;;;;;18.27;9.65;;;13.40;99.90;;;;;;4989850;28;20038;-86
2022/08/30 05:17:16;;;;;;;15.55;8.88;;;13.40;99.90;;;;;;4990867;28;20045;-85
2022/08/30 05:19:42;;;;;;;18.17;8.85;;;13.40;99.90;;;;;;4992333;28;20503;-85
2022/08/30 05:22:07;;;;;;;18.65;9.07;;;13.40;99.90;;;;;;4991822;28;20042;-85
2022/08/30 05:24:34;;;;;;;21.17;9.90;;;13.50;99.90;;;;;;4991538;28;20037;-85
2022/08/30 05:26:59;;;;;;;19.08;9.82;;;13.60;99.90;;;;;;4991240;28;20030;-86
2022/08/30 05:29:25;;;;;;;19.45;9.63;;;13.60;99.90;;;;;;5009266;28;20402;-86
2022/08/30 05:31:51;;;;;;;18.23;9.07;;;13.70;99.90;;;;;;4988812;28;20041;-86
2022/08/30 05:34:16;;;;;;;17.15;9.20;;;13.80;99.90;;;;;;4998160;28;20102;-85
2022/08/30 05:36:42;;;;;;;19.98;9.85;;;13.90;99.90;;;;;;4982968;28;20031;-85
2022/08/30 05:39:09;;;;;;;18.30;9.00;;;14.00;99.90;;;;;;4984128;28;20499;-86
2022/08/30 05:41:36;;;;;;;14.45;7.95;;;14.10;99.90;;;;;;4986285;28;20034;-85
2022/08/30 05:44:03;;;;;;;16.42;9.27;;;14.20;99.90;;;;;;4987793;28;20037;-85
2022/08/30 05:46:32;;;;;;;18.90;8.80;;;14.30;99.90;;;;;;4992473;28;20034;-85
2022/08/30 05:49:00;;;;;;;15.68;8.40;;;14.40;99.90;;;;;;4994575;28;20145;-85
2022/08/30 05:51:28;;;;;;;15.65;8.60;;;14.50;99.90;;;;;;4989960;28;20435;-86
2022/08/30 05:53:55;;;;;;;14.63;8.30;;;14.70;99.90;;;;;;4994577;28;20018;-86
2022/08/30 05:56:27;;;;;;;15.05;8.50;;;14.90;99.90;;;;;;4982662;28;20049;-87
2022/08/30 05:58:53;;;;;;;15.30;7.97;;;15.10;99.90;;;;;;4984488;28;20026;-85
2022/08/30 06:01:26;;;;;;;17.40;8.70;;;15.30;99.90;;;;;;4990053;28;20030;-85
2022/08/30 06:03:53;;;;;;;13.48;7.60;;;15.30;99.90;;;;;;4987843;28;20087;-85
2022/08/30 06:06:19;;;;;;;13.93;7.55;;;15.40;99.90;;;;;;4987327;28;20038;-86
2022/08/30 06:08:47;;;;;;;14.10;7.32;;;15.40;99.90;;;;;;4986845;28;20516;-85
2022/08/30 06:11:15;;;;;;;15.88;6.95;;;15.40;99.90;;;;;;4986832;28;20022;-86
2022/08/30 06:13:41;;;;;;;14.20;7.18;;;15.40;99.90;;;;;;4985004;28;20165;-85
2022/08/30 06:16:09;;;;;;;12.88;7.15;;;15.40;99.90;;;;;;4981294;28;20061;-86
2022/08/30 06:18:35;;;;;;;15.95;6.95;;;15.50;99.90;;;;;;4984869;28;20588;-85
2022/08/30 06:21:02;;;;;;;14.45;7.40;;;15.60;99.90;;;;;;4991297;28;20046;-85
2022/08/30 06:23:28;;;;;;;15.75;7.80;;;15.80;99.90;;;;;;4990744;28;20098;-85
2022/08/30 06:25:53;;;;;;;12.50;6.93;;;15.80;99.90;;;;;;4988441;28;20028;-86
2022/08/30 06:28:19;;;;;;;14.15;6.75;;;15.90;99.90;;;;;;4985370;28;20528;-85
2022/08/30 06:30:46;;;;;;;15.60;7.88;;;16.00;99.90;;;;;;4986089;28;20041;-85
2022/08/30 06:33:11;;;;;;;14.05;7.38;;;16.10;99.90;;;;;;4987560;28;20034;-85
2022/08/30 06:35:38;;;;;;;13.25;7.22;;;16.10;99.90;;;;;;4988224;28;20049;-85
2022/08/30 06:38:03;;;;;;;14.18;7.40;;;16.20;99.90;;;;;;4983862;28;20616;-85
2022/08/30 06:40:29;;;;;;;12.73;6.75;;;16.30;99.90;;;;;;4985944;28;20031;-85
2022/08/30 06:42:55;;;;;;;15.05;6.82;;;16.40;99.90;;;;;;4984397;28;20049;-85
2022/08/30 06:45:21;;;;;;;11.75;5.78;;;16.50;99.90;;;;;;4982567;28;20030;-85
2022/08/30 06:47:47;;;;;;;14.52;6.60;;;16.50;99.90;;;;;;4979320;28;20487;-85
2022/08/30 06:50:15;;;;;;;12.02;5.78;;;16.60;99.90;;;;;;4987431;28;20157;-86
2022/08/30 06:52:42;;;;;;;15.20;6.80;;;16.70;99.90;;;;;;4988125;28;20140;-85
2022/08/30 06:55:13;;;;;;;15.38;6.43;;;16.70;99.90;;;;;;4987596;28;20022;-85
2022/08/30 06:57:39;;;;;;;16.55;5.85;;;16.90;99.90;;;;;;4983183;28;20061;-85
2022/08/30 07:00:07;;;;;;;11.85;6.40;;;16.90;99.90;;;;;;4986637;28;20058;-85
2022/08/30 07:02:35;;;;;;;11.25;5.22;;;17.10;99.90;;;;;;4989415;28;20022;-85
2022/08/30 07:05:01;;;;;;;9.38;5.18;;;17.30;99.90;;;;;;4986829;28;20041;-85
2022/08/30 07:07:27;;;;;;;11.90;5.95;;;17.30;99.90;;;;;;4991909;28;20069;-86
2022/08/30 07:09:53;;;;;;;12.00;5.28;;;17.50;99.90;;;;;;4992179;28;20034;-86
2022/08/30 07:12:19;;;;;;;14.43;5.30;;;17.50;99.90;;;;;;4990166;28;20026;-86
2022/08/30 07:14:45;;;;;;;10.60;5.43;;;17.60;99.90;;;;;;4987725;28;20567;-86
2022/08/30 07:19:55;;;;;;;11.90;5.60;;;17.60;99.90;;;;;;4988189;28;20054;-86
2022/08/30 07:22:21;;;;;;;13.73;5.47;;;17.80;99.90;;;;;;4993271;28;20026;-87
2022/08/30 07:24:46;;;;;;;11.82;6.60;;;18.00;99.90;;;;;;4991724;28;20042;-86
2022/08/30 07:27:13;;;;;;;13.63;5.90;;;17.90;99.90;;;;;;4985102;28;20169;-87
2022/08/30 07:29:39;;;;;;;10.93;5.55;;;18.00;99.90;;;;;;4994108;28;20030;-85
2022/08/30 07:32:05;;;;;;;11.07;5.63;;;18.10;99.90;;;;;;4994184;28;20054;-85
2022/08/30 07:34:30;;;;;;;11.40;6.00;;;18.20;99.90;;;;;;5005253;28;20094;-85
2022/08/30 07:36:56;;;;;;;11.40;5.40;;;18.10;99.90;;;;;;4988762;28;20035;-85
2022/08/30 07:39:21;;;;;;;16.42;5.47;;;18.30;99.90;;;;;;5009450;28;20038;-85
2022/08/30 07:41:48;;;;;;;11.40;4.47;;;18.50;99.90;;;;;;4994673;28;20027;-85
2022/08/30 07:44:14;;;;;;;12.15;5.18;;;18.70;99.90;;;;;;4989668;28;20472;-85
2022/08/30 07:46:40;;;;;;;13.05;5.00;;;18.50;99.90;;;;;;4992376;28;20141;-85
2022/08/30 07:49:07;;;;;;;10.02;5.43;;;18.70;99.90;;;;;;4991381;28;20033;-85
2022/08/30 07:51:33;;;;;;;10.77;5.47;;;18.70;99.90;;;;;;4996299;28;20670;-85
2022/08/30 07:53:59;;;;;;;12.32;4.90;;;18.80;99.90;;;;;;4997830;28;20094;-85
2022/08/30 07:56:25;;;;;;;9.60;4.20;;;18.80;99.90;;;;;;4998554;28;20037;-85
2022/08/30 07:58:51;;;;;;;10.68;5.18;;;19.10;99.90;;;;;;4996494;28;20057;-85
2022/08/30 08:01:18;;;;;;;10.00;4.80;;;19.20;99.90;;;;;;4995352;28;20030;-85
2022/08/30 08:03:45;;;;;;;13.52;4.93;;;19.20;99.90;;;;;;4997110;28;20481;-85
2022/08/30 08:06:13;;;;;;;8.70;3.92;;;19.30;99.90;;;;;;4995121;28;20035;-85
2022/08/30 08:08:39;;;;;;;11.65;4.53;;;19.40;99.90;;;;;;4994917;28;20136;-85
2022/08/30 08:11:13;;;;;;;9.88;4.50;;;19.70;99.90;;;;;;4994227;28;20039;-85
2022/08/30 08:13:39;;;;;;;9.15;3.78;;;19.80;99.90;;;;;;4992966;28;20066;-86
2022/08/30 08:16:05;;;;;;;10.93;4.38;;;20.20;99.90;;;;;;4999206;28;20044;-85
2022/08/30 08:18:31;;;;;;;9.15;3.95;;;20.10;99.90;;;;;;4994837;28;20346;-85
2022/08/30 08:20:57;;;;;;;8.20;3.60;;;20.30;99.90;;;;;;4994055;28;20052;-85
2022/08/30 08:23:23;;;;;;;10.07;4.35;;;20.40;99.90;;;;;;4994461;28;20034;-84
2022/08/30 08:25:49;;;;;;;10.57;3.58;;;20.50;99.90;;;;;;4995492;28;20030;-85
2022/08/30 08:28:15;;;;;;;9.93;3.22;;;21.20;99.90;;;;;;4998134;28;20026;-85
2022/08/30 08:30:41;;;;;;;8.25;3.47;;;22.20;99.90;;;;;;4990705;28;20042;-85
2022/08/30 08:33:07;;;;;;;7.68;3.10;;;22.00;99.90;;;;;;4995114;28;20018;-85
2022/08/30 08:35:33;;;;;;;9.13;4.13;;;22.20;99.90;;;;;;4995055;28;20498;-86
2022/08/30 08:37:59;;;;;;;8.23;3.30;;;22.10;99.90;;;;;;4993452;28;20038;-85
2022/08/30 08:40:25;;;;;;;7.15;3.13;;;22.30;99.90;;;;;;4988724;28;20034;-86
2022/08/30 08:42:59;;;;;;;10.40;3.60;;;23.40;99.90;;;;;;4995453;28;20509;-85
2022/08/30 08:45:41;;;;;;;9.20;3.50;;;23.40;99.90;;;;;;4992905;28;20043;-85
2022/08/30 08:48:37;;;;;;;7.50;3.35;;;24.00;99.90;;;;;;5003248;28;20093;-85
2022/08/30 08:54:00;;;;;;;6.35;2.72;;;23.30;99.90;;;;;;4994520;28;20593;-85
2022/08/30 08:56:26;;;;;;;9.88;3.88;;;23.00;99.90;;;;;;4986598;28;20051;-85
2022/08/30 08:58:56;;;;;;;11.15;3.22;;;22.50;99.90;;;;;;4989564;28;20066;-85
2022/08/30 09:01:27;;;;;;;10.48;3.50;;;22.70;99.90;;;;;;4989963;28;20060;-85
2022/08/30 09:03:54;;;;;;;6.65;3.08;;;22.60;99.90;;;;;;4991896;28;20030;-86
2022/08/30 09:06:43;;;;;;;7.10;2.95;;;22.60;99.90;;;;;;4993138;28;20491;-86
2022/08/30 09:09:09;;;;;;;15.10;2.95;;;22.60;99.90;;;;;;4996029;28;20030;-86
2022/08/30 09:11:36;;;;;;;9.30;2.75;;;22.80;99.90;;;;;;4993805;28;20037;-86
2022/08/30 09:14:07;;;;;;;5.95;2.17;;;23.20;99.90;;;;;;4993564;28;20044;-86
2022/08/30 09:16:51;;;;;;;7.93;3.05;;;23.80;99.90;;;;;;4985682;28;20030;-85
2022/08/30 09:19:29;;;;;;;8.15;2.95;;;23.80;99.90;;;;;;4990290;28;20045;-86
2022/08/30 09:22:20;;;;;;;9.52;3.25;;;23.80;99.90;;;;;;4993709;28;20030;-86
2022/08/30 09:24:50;;;;;;;9.55;3.25;;;24.00;99.90;;;;;;4993605;28;20035;-86
2022/08/30 09:27:38;;;;;;;6.93;2.63;;;23.90;99.90;;;;;;4992679;28;20100;-85
2022/08/30 09:30:16;;;;;;;11.05;2.97;;;23.90;99.90;;;;;;4987172;28;20133;-85
2022/08/30 09:32:57;;;;;;;9.50;3.58;;;23.70;99.90;;;;;;5008675;28;20086;-86
2022/08/30 09:35:39;;;;;;;6.90;2.50;;;23.20;99.90;;;;;;4987874;28;20023;-85
2022/08/30 09:38:07;;;;;;;6.60;2.90;;;24.20;99.90;;;;;;4992374;28;20030;-86
2022/08/30 09:40:41;;;;;;;10.63;3.78;;;24.60;99.90;;;;;;4988413;28;20074;-85
2022/08/30 09:43:26;;;;;;;8.25;3.20;;;24.90;99.90;;;;;;4984769;28;20107;-85
2022/08/30 09:46:01;;;;;;;9.88;2.42;;;25.10;99.90;;;;;;4989192;28;20034;-85
2022/08/30 09:48:39;;;;;;;7.03;2.90;;;25.20;99.90;;;;;;5004705;28;20037;-85
2022/08/30 16:02:35;;;;;;;6.30;2.60;;;25.90;77.30;;;;;;515144;26;20377;-83
2022/08/30 16:05:01;;;;;;;6.47;2.33;;;26.00;77.30;;;;;;4914710;29;20057;-83
2022/08/30 16:07:26;;;;;;;9.15;2.60;;;25.60;77.50;;;;;;4914812;29;20035;-83
2022/08/30 16:09:52;;;;;;;7.45;2.78;;;25.70;77.90;;;;;;4918686;29;20024;-83
2022/08/30 16:12:18;;;;;;;7.85;2.78;;;25.30;78.50;;;;;;4917746;29;20032;-83
2022/08/30 16:14:43;;;;;;;7.20;2.50;;;25.00;79.20;;;;;;4929129;29;20039;-83
2022/08/30 16:17:09;;;;;;;8.60;2.80;;;25.00;79.00;;;;;;4905335;29;20036;-82
2022/08/30 16:19:35;;;;;;;7.47;2.20;;;25.40;79.00;;;;;;4918670;29;20470;-83
2022/08/30 16:22:01;;;;;;;5.90;2.40;;;25.60;78.70;;;;;;4914710;29;20594;-83
2022/08/30 16:24:27;;;;;;;7.30;2.58;;;25.40;79.20;;;;;;4917472;29;20031;-83
2022/08/30 16:26:53;;;;;;;6.00;2.28;;;25.50;79.70;;;;;;4915786;29;20407;-83
2022/08/30 16:29:20;;;;;;;6.40;2.10;;;25.40;79.90;;;;;;4913740;29;20030;-83
2022/08/30 16:31:45;;;;;;;5.95;2.10;;;25.70;80.00;;;;;;4931162;29;20059;-83
2022/08/30 16:34:14;;;;;;;7.18;2.80;;;27.00;77.30;;;;;;4917303;29;20056;-83
2022/08/30 16:36:39;;;;;;;7.65;2.50;;;27.20;75.40;;;;;;4911553;29;20433;-83
2022/08/30 16:39:07;;;;;;;6.38;2.55;;;27.30;75.30;;;;;;4917576;29;20074;-83
2022/08/30 16:41:33;;;;;;;7.25;2.55;;;27.20;75.10;;;;;;4910154;29;20443;-83
2022/08/30 16:43:59;;;;;;;6.03;2.17;;;27.40;75.00;;;;;;4926189;29;20115;-83
2022/08/30 16:46:25;;;;;;;7.25;2.50;;;27.20;75.10;;;;;;4938281;28;20162;-84
2022/08/30 16:48:51;;;;;;;6.35;2.20;;;27.30;74.70;;;;;;4914531;29;20028;-83
2022/08/30 16:51:22;;;;;;;7.80;2.40;;;26.90;75.30;;;;;;4908752;29;20039;-83
2022/08/30 16:53:48;;;;;;;7.60;2.63;;;26.70;75.40;;;;;;4933840;29;20023;-83
2022/08/30 16:56:18;;;;;;;6.55;2.25;;;26.10;76.50;;;;;;4942494;29;20035;-83
2022/08/30 16:58:44;;;;;;;6.30;2.70;;;25.30;78.40;;;;;;4917666;29;20060;-83
2022/08/30 17:01:10;;;;;;;9.90;2.60;;;25.40;78.70;;;;;;4914469;29;20719;-83
2022/08/30 17:03:36;;;;;;;8.18;2.55;;;25.10;78.40;;;;;;4930997;29;20104;-84
2022/08/30 17:06:02;;;;;;;7.50;2.40;;;24.60;80.00;;;;;;4932948;29;20801;-83
2022/08/30 17:08:28;;;;;;;6.32;2.58;;;24.30;80.30;;;;;;4935155;29;20027;-83
2022/08/30 17:10:54;;;;;;;5.78;2.20;;;24.10;81.10;;;;;;4934652;29;20539;-83
2022/08/30 17:13:20;;;;;;;6.90;2.83;;;23.80;81.50;;;;;;4931199;28;20031;-83
2022/08/30 17:15:46;;;;;;;7.00;2.50;;;23.90;82.10;;;;;;4928881;29;20031;-83
2022/08/30 17:18:15;;;;;;;9.82;2.63;;;23.90;82.40;;;;;;4929476;29;20035;-83
2022/08/30 17:20:41;;;;;;;8.02;2.50;;;23.60;83.30;;;;;;4934080;29;20039;-83
2022/08/30 17:23:07;;;;;;;6.07;2.45;;;23.60;83.30;;;;;;4933408;29;20031;-83
2022/08/30 17:25:33;;;;;;;7.22;2.40;;;23.60;83.80;;;;;;4932477;29;20031;-83
2022/08/30 17:27:59;;;;;;;7.22;2.50;;;23.50;84.30;;;;;;4935595;29;20055;-83
2022/08/30 17:30:24;;;;;;;8.35;2.70;;;23.30;84.30;;;;;;4924744;28;20439;-83
2022/08/30 17:32:52;;;;;;;8.60;2.53;;;23.20;84.70;;;;;;4931354;29;20028;-83
2022/08/30 17:35:19;;;;;;;7.93;2.60;;;23.10;85.00;;;;;;4942449;28;20122;-83
2022/08/30 17:37:45;;;;;;;8.57;2.60;;;23.10;85.50;;;;;;4933770;28;20025;-84
2022/08/30 17:40:11;;;;;;;6.28;2.65;;;23.00;85.40;;;;;;4933129;28;20023;-83
2022/08/30 17:42:37;;;;;;;8.45;2.90;;;23.00;86.20;;;;;;4929998;29;20024;-83
2022/08/30 17:45:08;;;;;;;7.40;2.80;;;22.90;86.30;;;;;;4933559;29;20051;-83
2022/08/30 17:47:35;;;;;;;9.00;3.30;;;23.00;86.10;;;;;;4942424;28;20028;-83
2022/08/30 17:50:01;;;;;;;7.10;3.10;;;22.80;86.50;;;;;;4933233;29;20038;-83
2022/08/30 17:52:27;;;;;;;11.52;3.25;;;22.70;87.00;;;;;;4922749;29;20528;-83
2022/08/30 17:54:52;;;;;;;9.50;3.17;;;22.60;87.80;;;;;;4927855;28;20129;-83
2022/08/30 17:57:19;;;;;;;7.53;2.90;;;22.40;88.40;;;;;;4947171;28;20053;-83
2022/08/30 17:59:45;;;;;;;9.80;3.20;;;22.40;88.80;;;;;;4936543;28;20031;-83
2022/08/30 18:02:13;;;;;;;8.57;3.15;;;22.40;89.00;;;;;;4948828;28;20134;-83
2022/08/30 18:04:39;;;;;;;10.55;2.92;;;22.20;89.90;;;;;;4949842;28;20162;-83
2022/08/30 18:07:05;;;;;;;7.53;3.60;;;22.10;90.30;;;;;;4948181;28;20713;-83
2022/08/30 18:09:31;;;;;;;8.35;3.20;;;22.00;90.80;;;;;;4939370;28;20023;-83
2022/08/30 18:11:56;;;;;;;9.63;3.25;;;22.00;90.80;;;;;;4925933;28;20086;-83
2022/08/30 18:14:22;;;;;;;7.30;3.10;;;21.90;90.90;;;;;;4929357;29;20062;-82
2022/08/30 18:16:48;;;;;;;6.50;3.10;;;21.80;91.30;;;;;;4930239;28;20812;-83
2022/08/30 18:19:15;;;;;;;14.20;3.05;;;21.70;91.50;;;;;;4948418;28;20090;-83
2022/08/30 18:21:41;;;;;;;10.98;3.10;;;21.70;91.60;;;;;;4935579;28;20102;-82
2022/08/30 18:24:07;;;;;;;9.35;3.05;;;21.70;91.80;;;;;;4953396;29;20102;-82
2022/08/30 18:26:34;;;;;;;10.43;3.08;;;21.50;92.10;;;;;;4953748;28;20031;-82
2022/08/30 18:29:00;;;;;;;12.80;3.13;;;21.40;92.50;;;;;;4931130;29;20143;-83
2022/08/30 18:31:26;;;;;;;7.90;3.40;;;21.40;93.00;;;;;;4927240;28;20143;-83
2022/08/30 18:33:52;;;;;;;8.35;3.20;;;21.30;93.20;;;;;;4930942;29;20118;-82
2022/08/30 18:36:18;;;;;;;6.85;3.35;;;21.20;93.40;;;;;;4948075;28;20046;-82
2022/08/30 18:38:44;;;;;;;8.05;3.10;;;21.20;93.80;;;;;;4940071;29;20031;-82
2022/08/30 18:41:15;;;;;;;7.93;2.90;;;21.10;93.90;;;;;;4929216;28;20033;-83
2022/08/30 18:43:42;;;;;;;8.63;3.17;;;21.00;94.20;;;;;;4940755;29;20028;-82
2022/08/30 18:46:13;;;;;;;7.50;3.10;;;21.00;94.50;;;;;;4933288;29;20016;-82
2022/08/30 18:48:39;;;;;;;8.30;3.20;;;21.00;94.80;;;;;;4951570;28;20038;-82
2022/08/30 18:51:12;;;;;;;10.18;3.03;;;20.80;95.40;;;;;;4949304;28;20019;-83
2022/08/30 18:53:39;;;;;;;8.75;2.95;;;20.70;95.70;;;;;;4941209;29;20031;-82
2022/08/30 18:56:05;;;;;;;9.55;2.97;;;20.70;95.60;;;;;;4936021;29;20035;-82
2022/08/30 18:58:31;;;;;;;7.07;3.08;;;20.60;96.10;;;;;;4939430;29;20662;-82
2022/08/30 19:00:56;;;;;;;8.98;3.13;;;20.50;96.50;;;;;;4935139;28;20085;-83